createdAt,value
2022-10-17T00:00:26.886Z,31.40
2022-10-17T00:03:18.921Z,29.60
2022-10-17T00:05:49.199Z,28.50
2022-10-17T00:08:19.316Z,28.90
2022-10-17T00:11:05.727Z,29.30
2022-10-17T00:13:35.229Z,29.40
2022-10-17T00:16:06.021Z,28.90
2022-10-17T00:18:35.277Z,30.90
2022-10-17T00:21:06.606Z,29.50
2022-10-17T00:23:35.659Z,31.10
2022-10-17T00:26:06.395Z,31.20
2022-10-17T00:28:35.403Z,32.40
2022-10-17T00:31:10.172Z,32.10
2022-10-17T00:33:39.644Z,38.40
2022-10-17T00:36:15.963Z,42.60
2022-10-17T00:38:48.307Z,40.70
2022-10-17T00:41:23.142Z,46.60
2022-10-17T00:44:18.626Z,43.10
2022-10-17T00:46:47.478Z,40.20
2022-10-17T00:49:16.301Z,35.60
2022-10-17T00:51:54.232Z,33.40
2022-10-17T00:54:30.487Z,33.40
2022-10-17T00:57:00.551Z,33.50
2022-10-17T00:59:37.080Z,31.70
2022-10-17T01:02:13.673Z,32.40
2022-10-17T01:04:50.976Z,31.20
2022-10-17T01:07:20.115Z,33.70
2022-10-17T01:09:52.729Z,32.20
2022-10-17T01:12:57.739Z,32.40
2022-10-17T01:15:45.172Z,32.60
2022-10-17T01:18:35.998Z,33.00
2022-10-17T01:21:10.501Z,33.90
2022-10-17T01:24:07.555Z,32.50
2022-10-17T01:27:05.924Z,33.80
2022-10-17T01:29:54.071Z,34.90
2022-10-17T01:32:46.978Z,34.60
2022-10-17T01:35:56.111Z,33.40
2022-10-17T01:38:48.880Z,35.50
2022-10-17T01:41:32.362Z,33.60
2022-10-17T01:44:35.543Z,34.00
2022-10-17T01:47:17.500Z,35.20
2022-10-17T01:50:01.076Z,37.80
2022-10-17T01:52:56.080Z,36.30
2022-10-17T01:55:35.199Z,36.50
2022-10-17T01:58:12.729Z,35.70
2022-10-17T02:00:45.471Z,34.10
2022-10-17T02:03:23.497Z,36.30
2022-10-17T02:05:52.754Z,35.70
2022-10-17T02:08:40.453Z,34.60
2022-10-17T02:11:21.793Z,35.20
2022-10-17T02:14:33.244Z,35.90
2022-10-17T02:17:44.997Z,37.40
2022-10-17T02:20:53.461Z,37.20
2022-10-17T02:24:03.943Z,36.90
2022-10-17T02:26:52.710Z,34.80
2022-10-17T02:29:35.053Z,36.80
2022-10-17T02:35:01.779Z,38.40
2022-10-17T02:37:35.045Z,37.40
2022-10-17T02:40:08.975Z,38.20
2022-10-17T02:42:46.488Z,37.40
2022-10-17T02:45:28.025Z,37.90
2022-10-17T02:48:09.717Z,38.80
2022-10-17T02:51:19.462Z,36.40
2022-10-17T02:54:06.275Z,38.70
2022-10-17T02:56:43.963Z,37.70
2022-10-17T02:59:16.210Z,38.00
2022-10-17T03:01:45.485Z,38.20
2022-10-17T03:04:27.371Z,38.20
2022-10-17T03:09:29.123Z,39.30
2022-10-17T03:11:59.366Z,39.00
2022-10-17T03:14:37.971Z,40.00
2022-10-17T03:17:07.212Z,40.90
2022-10-17T03:19:38.396Z,38.60
2022-10-17T03:22:11.861Z,40.40
2022-10-17T03:24:45.569Z,40.00
2022-10-17T03:27:17.165Z,40.80
2022-10-17T03:29:53.352Z,38.70
2022-10-17T03:32:31.379Z,39.20
2022-10-17T03:35:56.820Z,39.10
2022-10-17T03:38:37.029Z,39.90
2022-10-17T03:41:07.576Z,40.30
2022-10-17T03:43:40.182Z,41.60
2022-10-17T03:46:12.913Z,37.50
2022-10-17T03:48:54.051Z,39.80
2022-10-17T03:51:28.673Z,42.40
2022-10-17T03:54:10.716Z,38.70
2022-10-17T03:56:47.058Z,39.60
2022-10-17T03:59:29.551Z,40.40
2022-10-17T04:02:14.208Z,42.10
2022-10-17T04:04:46.882Z,42.30
2022-10-17T04:10:14.106Z,42.50
2022-10-17T04:13:00.867Z,41.60
2022-10-17T04:16:18.439Z,38.80
2022-10-17T04:19:04.026Z,40.70
2022-10-17T04:21:42.826Z,40.60
2022-10-17T04:24:44.923Z,40.60
2022-10-17T04:27:55.180Z,39.70
2022-10-17T04:30:54.096Z,40.60
2022-10-17T04:33:57.172Z,38.00
2022-10-17T04:36:47.158Z,38.00
2022-10-17T04:39:32.730Z,39.30
2022-10-17T04:42:29.588Z,54.80
2022-10-17T04:45:06.421Z,40.20
2022-10-17T04:47:41.247Z,39.80
2022-10-17T04:50:12.494Z,41.30
2022-10-17T04:52:47.903Z,40.80
2022-10-17T04:55:25.957Z,40.40
2022-10-17T04:58:06.875Z,38.80
2022-10-17T05:00:47.581Z,41.70
2022-10-17T05:03:42.938Z,41.10
2022-10-17T05:06:25.338Z,39.20
2022-10-17T05:09:54.588Z,42.00
2022-10-17T05:15:33.852Z,40.30
2022-10-17T05:18:19.654Z,40.50
2022-10-17T05:24:09.730Z,38.90
2022-10-17T05:26:46.025Z,40.50
2022-10-17T05:29:20.510Z,41.10
2022-10-17T05:35:07.061Z,41.60
2022-10-17T05:37:44.245Z,41.90
2022-10-17T05:40:52.970Z,40.80
2022-10-17T05:43:40.931Z,40.90
2022-10-17T05:46:35.202Z,40.90
2022-10-17T05:49:44.954Z,40.80
2022-10-17T05:53:11.385Z,42.70
2022-10-17T05:56:14.857Z,42.80
2022-10-17T05:59:04.478Z,40.10
2022-10-17T06:02:17.659Z,39.90
2022-10-17T06:05:15.583Z,38.90
2022-10-17T06:07:58.282Z,42.40
2022-10-17T06:11:09.132Z,38.10
2022-10-17T06:14:03.937Z,48.00
2022-10-17T06:16:44.663Z,46.70
2022-10-17T06:19:28.020Z,42.80
2022-10-17T06:22:16.847Z,47.00
2022-10-17T06:25:03.239Z,39.30
2022-10-17T06:33:26.619Z,43.20
2022-10-17T06:34:39.589Z,42.30
2022-10-17T06:37:39.863Z,38.10
2022-10-17T06:40:24.025Z,41.70
2022-10-17T06:43:25.588Z,39.10
2022-10-17T06:46:59.686Z,35.60
2022-10-17T06:49:34.574Z,33.70
2022-10-17T06:52:32.943Z,36.50
2022-10-17T06:58:11.583Z,33.60
2022-10-17T07:01:00.858Z,33.40
2022-10-17T07:02:45.197Z,31.60
2022-10-17T07:05:35.835Z,34.00
2022-10-17T07:08:14.909Z,33.50
2022-10-17T07:11:05.335Z,36.20
2022-10-17T07:17:16.307Z,33.60
2022-10-17T07:19:48.825Z,30.50
2022-10-17T07:22:46.279Z,30.80
2022-10-17T07:26:10.741Z,30.20
2022-10-17T07:29:00.399Z,28.40
2022-10-17T07:31:53.524Z,30.70
2022-10-17T07:34:33.009Z,28.90
2022-10-17T07:37:22.994Z,28.80
2022-10-17T07:40:11.183Z,27.90
2022-10-17T07:43:23.370Z,27.50
2022-10-17T07:46:08.629Z,26.50
2022-10-17T07:48:58.885Z,26.30
2022-10-17T07:51:36.519Z,51.20
2022-10-17T07:54:08.311Z,27.70
2022-10-17T07:56:37.603Z,27.50
2022-10-17T07:59:09.311Z,26.20
2022-10-17T08:01:40.046Z,26.10
2022-10-17T08:07:11.300Z,24.90
2022-10-17T08:09:54.741Z,26.50
2022-10-17T08:12:25.343Z,26.70
2022-10-17T08:15:05.068Z,23.60
2022-10-17T08:17:41.824Z,26.10
2022-10-17T08:20:19.997Z,25.10
2022-10-17T08:23:09.267Z,24.70
2022-10-17T08:25:43.229Z,25.90
2022-10-17T08:28:23.283Z,25.20
2022-10-17T08:31:09.779Z,26.20
2022-10-17T08:33:45.118Z,26.90
2022-10-17T08:36:31.477Z,24.40
2022-10-17T08:39:03.767Z,29.90
2022-10-17T08:41:40.234Z,25.30
2022-10-17T08:44:39.563Z,24.40
2022-10-17T08:47:33.066Z,24.20
2022-10-17T08:50:38.348Z,25.60
2022-10-17T08:53:19.469Z,26.50
2022-10-17T08:55:52.450Z,26.80
2022-10-17T08:58:38.645Z,27.50
2022-10-17T09:01:44.134Z,24.80
2022-10-17T09:04:40.062Z,26.70
2022-10-17T09:08:02.632Z,24.00
2022-10-17T09:11:30.579Z,29.00
2022-10-17T09:15:03.270Z,26.50
2022-10-17T09:18:14.294Z,23.80
2022-10-17T09:21:13.462Z,24.20
2022-10-17T09:23:59.530Z,24.30
2022-10-17T09:26:40.545Z,24.80
2022-10-17T09:29:24.646Z,24.60
2022-10-17T09:32:04.775Z,26.20
2022-10-17T09:34:33.690Z,23.80
2022-10-17T09:37:03.144Z,24.90
2022-10-17T09:39:33.204Z,23.50
2022-10-17T09:42:03.271Z,25.70
2022-10-17T09:45:12.919Z,24.20
2022-10-17T09:50:27.835Z,23.80
2022-10-17T09:53:02.326Z,26.30
2022-10-17T09:55:49.694Z,24.10
2022-10-17T09:58:20.652Z,25.10
2022-10-17T10:00:53.834Z,23.90
2022-10-17T10:03:29.867Z,22.50
2022-10-17T10:06:05.257Z,24.60
2022-10-17T10:08:58.929Z,25.70
2022-10-17T10:12:20.862Z,22.80
2022-10-17T10:14:55.531Z,27.20
2022-10-17T10:17:35.849Z,22.90
2022-10-17T10:20:30.172Z,22.00
2022-10-17T10:23:17.881Z,23.40
2022-10-17T10:26:02.945Z,25.90
2022-10-17T10:28:36.879Z,22.20
2022-10-17T10:31:09.602Z,21.90
2022-10-17T10:33:46.983Z,22.80
2022-10-17T10:36:21.984Z,21.00
2022-10-17T10:39:01.234Z,23.40
2022-10-17T10:41:48.384Z,21.10
2022-10-17T10:44:26.181Z,21.90
2022-10-17T10:47:33.109Z,21.90
2022-10-17T10:50:24.867Z,23.80
2022-10-17T10:53:26.888Z,22.40
2022-10-17T10:56:31.797Z,21.20
2022-10-17T10:59:14.547Z,29.50
2022-10-17T11:02:03.836Z,22.20
2022-10-17T11:04:52.762Z,20.80
2022-10-17T11:07:53.047Z,20.70
2022-10-17T11:10:55.424Z,19.20
2022-10-17T11:13:31.796Z,23.40
2022-10-17T11:16:23.538Z,21.70
2022-10-17T11:19:23.934Z,19.20
2022-10-17T11:22:26.658Z,19.30
2022-10-17T11:25:24.911Z,17.80
2022-10-17T11:27:54.442Z,17.10
2022-10-17T11:30:27.665Z,20.60
2022-10-17T11:33:01.257Z,19.30
2022-10-17T11:35:39.216Z,18.00
2022-10-17T11:38:45.972Z,18.50
2022-10-17T11:41:26.892Z,19.00
2022-10-17T11:44:32.663Z,17.30
2022-10-17T11:47:43.204Z,18.50
2022-10-17T11:54:09.360Z,18.20
2022-10-17T11:56:54.289Z,19.40
2022-10-17T12:00:10.027Z,18.90
2022-10-17T12:03:05.154Z,18.70
2022-10-17T12:05:56.389Z,17.70
2022-10-17T12:08:39.584Z,17.30
2022-10-17T12:11:46.911Z,16.80
2022-10-17T12:14:37.472Z,17.70
2022-10-17T12:17:40.599Z,18.50
2022-10-17T12:20:21.850Z,18.40
2022-10-17T12:22:52.179Z,17.60
2022-10-17T12:25:31.539Z,22.10
2022-10-17T12:28:22.871Z,20.60
2022-10-17T12:30:57.398Z,19.20
2022-10-17T12:33:48.447Z,15.80
2022-10-17T12:36:19.660Z,17.30
2022-10-17T12:39:01.760Z,18.90
2022-10-17T12:41:40.264Z,20.20
2022-10-17T12:44:16.655Z,17.00
2022-10-17T12:47:04.199Z,18.00
2022-10-17T12:49:48.811Z,16.70
2022-10-17T12:52:31.721Z,17.30
2022-10-17T12:55:18.309Z,16.10
2022-10-17T12:57:58.767Z,18.30
2022-10-17T13:00:59.536Z,15.80
2022-10-17T13:03:44.501Z,15.40
2022-10-17T13:06:34.545Z,15.80
2022-10-17T13:09:35.537Z,17.30
2022-10-17T13:12:12.660Z,17.30
2022-10-17T13:14:46.735Z,16.00
2022-10-17T13:17:30.904Z,15.50
2022-10-17T13:20:01.928Z,15.80
2022-10-17T13:22:33.466Z,16.20
2022-10-17T13:25:21.977Z,15.00
2022-10-17T13:28:02.992Z,17.70
2022-10-17T13:30:36.277Z,15.80
2022-10-17T13:33:30.528Z,15.70
2022-10-17T13:36:05.282Z,18.70
2022-10-17T13:38:40.293Z,16.70
2022-10-17T13:41:34.936Z,28.30
2022-10-17T13:44:15.238Z,18.10
2022-10-17T13:46:45.290Z,16.50
2022-10-17T13:49:43.315Z,19.40
2022-10-17T13:52:23.591Z,18.90
2022-10-17T13:54:54.562Z,16.40
2022-10-17T13:57:31.158Z,20.60
2022-10-17T14:00:19.902Z,17.40
2022-10-17T14:02:49.233Z,22.10
2022-10-17T14:05:23.384Z,20.40
2022-10-17T14:08:12.447Z,17.20
2022-10-17T14:10:44.760Z,19.30
2022-10-17T14:13:22.027Z,17.40
2022-10-17T14:15:53.020Z,19.90
2022-10-17T14:18:34.880Z,18.50
2022-10-17T14:24:14.152Z,18.40
2022-10-17T14:26:52.518Z,19.80
2022-10-17T14:29:35.148Z,19.60
2022-10-17T14:32:13.906Z,19.20
2022-10-17T14:34:43.096Z,17.40
2022-10-17T14:37:43.925Z,18.60
2022-10-17T14:40:35.416Z,18.60
2022-10-17T14:45:39.382Z,19.30
2022-10-17T14:48:17.875Z,18.40
2022-10-17T14:51:06.868Z,17.50
2022-10-17T14:53:36.981Z,19.10
2022-10-17T14:56:26.876Z,21.00
2022-10-17T14:58:56.123Z,21.90
2022-10-17T15:01:25.351Z,19.60
2022-10-17T15:03:54.640Z,20.50
2022-10-17T15:06:30.619Z,19.80
2022-10-17T15:09:00.385Z,19.70
2022-10-17T15:11:29.628Z,19.00
2022-10-17T15:13:58.863Z,21.80
2022-10-17T15:16:33.293Z,23.20
2022-10-17T15:19:02.548Z,19.40
2022-10-17T15:21:40.570Z,21.40
2022-10-17T15:24:12.457Z,20.60
2022-10-17T15:26:43.921Z,22.50
2022-10-17T15:29:16.525Z,20.90
2022-10-17T15:31:45.732Z,21.50
2022-10-17T15:34:15.087Z,25.10
2022-10-17T15:36:51.957Z,20.90
2022-10-17T15:39:21.203Z,26.30
2022-10-17T15:41:50.460Z,23.20
2022-10-17T15:44:20.872Z,23.10
2022-10-17T15:46:50.222Z,23.80
2022-10-17T15:49:20.289Z,22.80
2022-10-17T15:51:55.454Z,23.30
2022-10-17T15:57:04.441Z,24.80
2022-10-17T16:02:27.299Z,24.70
2022-10-17T16:05:00.081Z,27.50
2022-10-17T16:07:38.021Z,28.60
2022-10-17T16:10:10.540Z,28.30
2022-10-17T16:12:43.314Z,30.10
2022-10-17T16:15:36.880Z,35.10
2022-10-17T16:18:17.213Z,34.80
2022-10-17T16:20:58.159Z,38.60
2022-10-17T16:23:27.947Z,41.70
2022-10-17T16:25:59.461Z,40.90
2022-10-17T16:28:31.040Z,37.30
2022-10-17T16:31:01.938Z,40.10
2022-10-17T16:33:34.684Z,50.90
2022-10-17T16:36:07.947Z,46.50
2022-10-17T16:38:40.944Z,52.30
2022-10-17T16:41:34.281Z,51.00
2022-10-17T16:44:19.794Z,55.50
2022-10-17T16:46:52.057Z,45.80
2022-10-17T16:49:21.452Z,55.90
2022-10-17T16:51:50.617Z,45.60
2022-10-17T16:54:22.537Z,52.60
2022-10-17T16:56:51.699Z,45.70
2022-10-17T16:59:21.101Z,42.40
2022-10-17T17:01:59.248Z,36.60
2022-10-17T17:04:31.349Z,33.90
2022-10-17T17:07:05.690Z,34.60
2022-10-17T17:09:40.243Z,32.00
2022-10-17T17:12:34.611Z,31.60
2022-10-17T17:15:08.222Z,29.70
2022-10-17T17:17:50.613Z,28.40
2022-10-17T17:20:31.142Z,26.30
2022-10-17T17:23:04.862Z,29.20
2022-10-17T17:25:45.522Z,25.60
2022-10-17T17:28:19.426Z,28.00
2022-10-17T17:31:02.122Z,24.90
2022-10-17T17:33:46.255Z,23.10
2022-10-17T17:36:22.127Z,22.40
2022-10-17T17:39:17.238Z,20.80
2022-10-17T17:45:39.086Z,22.50
2022-10-17T17:48:22.623Z,24.20
2022-10-17T17:51:09.142Z,20.30
2022-10-17T17:53:52.078Z,21.10
2022-10-17T17:56:33.274Z,17.70
2022-10-17T17:59:03.286Z,31.70
2022-10-17T18:01:41.459Z,30.90
2022-10-17T18:04:26.616Z,21.50
2022-10-17T18:07:00.596Z,20.20
2022-10-17T18:09:32.389Z,18.10
2022-10-17T18:12:01.693Z,21.40
2022-10-17T18:14:30.985Z,17.10
2022-10-17T18:17:14.926Z,20.10
2022-10-17T18:19:49.700Z,18.60
2022-10-17T18:22:21.468Z,28.10
2022-10-17T18:24:59.306Z,20.80
2022-10-17T18:27:51.759Z,25.70
2022-10-17T18:31:10.761Z,20.80
2022-10-17T18:34:08.810Z,18.60
2022-10-17T18:36:46.943Z,19.90
2022-10-17T18:39:41.502Z,32.40
2022-10-17T18:42:30.584Z,22.40
2022-10-17T18:45:11.728Z,23.40
2022-10-17T18:47:55.886Z,21.10
2022-10-17T18:50:33.363Z,20.60
2022-10-17T18:53:06.677Z,21.20
2022-10-17T18:55:41.736Z,20.00
2022-10-17T18:58:14.020Z,19.20
2022-10-17T19:01:08.092Z,19.40
2022-10-17T19:03:46.015Z,21.30
2022-10-17T19:06:39.539Z,19.30
2022-10-17T19:09:18.797Z,17.90
2022-10-17T19:12:05.099Z,23.10
2022-10-17T19:15:01.240Z,20.60
2022-10-17T19:17:49.077Z,16.60
2022-10-17T19:20:32.209Z,14.90
2022-10-17T19:23:07.805Z,17.20
2022-10-17T19:25:39.923Z,20.30
2022-10-17T19:28:12.690Z,23.70
2022-10-17T19:30:45.954Z,16.20
2022-10-17T19:33:18.964Z,19.20
2022-10-17T19:35:59.811Z,22.60
2022-10-17T19:38:32.999Z,21.80
2022-10-17T19:41:08.384Z,18.20
2022-10-17T19:43:53.116Z,20.70
2022-10-17T19:46:35.277Z,25.80
2022-10-17T19:49:26.995Z,19.90
2022-10-17T19:52:02.130Z,18.00
2022-10-17T19:54:46.297Z,20.50
2022-10-17T19:57:18.188Z,17.40
2022-10-17T20:00:43.999Z,17.80
2022-10-17T20:02:51.897Z,20.70
2022-10-17T20:06:19.144Z,23.80
2022-10-17T20:08:58.313Z,19.40
2022-10-17T20:11:33.354Z,15.60
2022-10-17T20:14:08.152Z,16.70
2022-10-17T20:21:24.023Z,17.50
2022-10-17T20:24:01.015Z,18.00
2022-10-17T20:27:27.643Z,18.10
2022-10-17T20:30:31.098Z,21.20
2022-10-17T20:33:08.374Z,19.90
2022-10-17T20:38:21.713Z,18.20
2022-10-17T20:41:34.041Z,20.90
2022-10-17T20:44:16.984Z,20.80
2022-10-17T20:47:04.500Z,20.70
2022-10-17T20:49:46.078Z,18.90
2022-10-17T20:52:46.598Z,19.90
2022-10-17T20:55:35.478Z,28.00
2022-10-17T20:58:26.966Z,20.20
2022-10-17T21:01:15.580Z,24.50
2022-10-17T21:03:50.170Z,26.60
2022-10-17T21:06:34.621Z,22.40
2022-10-17T21:09:15.310Z,22.10
2022-10-17T21:14:51.744Z,22.20
2022-10-17T21:17:42.894Z,23.10
2022-10-17T21:20:31.914Z,19.70
2022-10-17T21:23:02.529Z,18.40
2022-10-17T21:25:56.878Z,19.70
2022-10-17T21:28:31.547Z,20.90
2022-10-17T21:31:15.089Z,23.30
2022-10-17T21:33:58.360Z,20.60
2022-10-17T21:36:36.423Z,18.50
2022-10-17T21:39:30.176Z,16.70
2022-10-17T21:42:25.977Z,18.00
2022-10-17T21:45:15.852Z,20.70
2022-10-17T21:48:18.901Z,19.10
2022-10-17T21:51:11.985Z,17.00
2022-10-17T21:54:14.680Z,16.50
2022-10-17T21:57:01.436Z,16.80
2022-10-17T21:59:49.175Z,16.70
2022-10-17T22:03:06.983Z,18.30
2022-10-17T22:05:58.251Z,20.20
2022-10-17T22:09:08.132Z,18.70
2022-10-17T22:11:45.426Z,17.30
2022-10-17T22:14:25.016Z,17.80
2022-10-17T22:17:10.433Z,17.50
2022-10-17T22:19:48.835Z,17.10
2022-10-17T22:22:34.175Z,20.70
2022-10-17T22:25:37.929Z,17.20
2022-10-17T22:28:19.001Z,18.90
2022-10-17T22:31:31.720Z,18.80
2022-10-17T22:36:58.665Z,17.20
2022-10-17T22:40:10.384Z,16.60
2022-10-17T22:42:44.269Z,20.80
2022-10-17T22:46:01.556Z,20.50
2022-10-17T22:48:46.407Z,17.70
2022-10-17T22:54:11.698Z,20.00
2022-10-17T22:57:12.336Z,17.80
2022-10-17T22:59:43.299Z,17.80
2022-10-17T23:02:33.576Z,26.80
2022-10-17T23:05:16.850Z,18.50
2022-10-17T23:08:15.441Z,19.60
2022-10-17T23:11:41.645Z,20.40
2022-10-17T23:14:03.339Z,19.80
2022-10-17T23:16:36.892Z,20.10
2022-10-17T23:19:35.574Z,23.00
2022-10-17T23:25:43.639Z,19.90
2022-10-17T23:28:26.416Z,23.40
2022-10-17T23:31:01.891Z,19.30
2022-10-17T23:33:51.511Z,22.80
2022-10-17T23:37:07.348Z,19.80
2022-10-17T23:40:17.410Z,19.30
2022-10-17T23:43:26.666Z,20.00
2022-10-17T23:45:59.395Z,22.20
2022-10-17T23:51:57.075Z,20.90
2022-10-17T23:54:56.118Z,20.80
2022-10-17T23:58:27.523Z,21.90
